sensor_id;sensor_type;location;lat;lon;timestamp;pressure;altitude;pressure_sealevel;temperature;humidity
16777;BME280;8505;49.456;8.164;2023-01-28T00:02:19;100574.75;;;2.55;86.12
16777;BME280;8505;49.456;8.164;2023-01-28T00:04:48;100572.69;;;2.60;86.45
16777;BME280;8505;49.456;8.164;2023-01-28T00:07:17;100570.22;;;2.71;85.60
16777;BME280;8505;49.456;8.164;2023-01-28T00:09:45;100568.16;;;2.76;86.32
16777;BME280;8505;49.456;8.164;2023-01-28T00:12:13;100569.69;;;2.78;85.89
16777;BME280;8505;49.456;8.164;2023-01-28T00:14:40;100563.41;;;2.68;86.53
16777;BME280;8505;49.456;8.164;2023-01-28T00:17:08;100571.78;;;2.73;85.66
16777;BME280;8505;49.456;8.164;2023-01-28T00:19:36;100568.66;;;2.81;86.04
16777;BME280;8505;49.456;8.164;2023-01-28T00:22:05;100567.72;;;2.69;85.71
16777;BME280;8505;49.456;8.164;2023-01-28T00:24:32;100566.53;;;2.61;86.48
16777;BME280;8505;49.456;8.164;2023-01-28T00:27:00;100567.00;;;2.53;86.24
16777;BME280;8505;49.456;8.164;2023-01-28T00:29:27;100561.28;;;2.61;86.30
16777;BME280;8505;49.456;8.164;2023-01-28T00:31:55;100567.22;;;2.50;86.50
16777;BME280;8505;49.456;8.164;2023-01-28T00:34:22;100567.41;;;2.74;85.81
16777;BME280;8505;49.456;8.164;2023-01-28T00:36:50;100561.38;;;2.47;86.25
16777;BME280;8505;49.456;8.164;2023-01-28T00:39:25;100563.59;;;2.53;86.59
16777;BME280;8505;49.456;8.164;2023-01-28T00:41:53;100556.97;;;2.47;86.29
16777;BME280;8505;49.456;8.164;2023-01-28T00:44:20;100554.38;;;2.60;86.16
16777;BME280;8505;49.456;8.164;2023-01-28T00:46:48;100556.25;;;2.45;86.19
16777;BME280;8505;49.456;8.164;2023-01-28T00:49:15;100560.34;;;2.62;86.24
16777;BME280;8505;49.456;8.164;2023-01-28T00:51:43;100556.38;;;2.56;86.08
16777;BME280;8505;49.456;8.164;2023-01-28T00:54:11;100554.78;;;2.54;86.42
16777;BME280;8505;49.456;8.164;2023-01-28T00:56:40;100551.00;;;2.45;86.57
16777;BME280;8505;49.456;8.164;2023-01-28T00:59:08;100555.97;;;2.62;85.66
16777;BME280;8505;49.456;8.164;2023-01-28T01:01:36;100557.56;;;2.38;86.52
16777;BME280;8505;49.456;8.164;2023-01-28T01:04:03;100560.78;;;2.68;85.56
16777;BME280;8505;49.456;8.164;2023-01-28T01:06:33;100564.78;;;2.74;85.04
16777;BME280;8505;49.456;8.164;2023-01-28T01:09:03;100561.34;;;2.86;83.85
16777;BME280;8505;49.456;8.164;2023-01-28T01:11:33;100565.00;;;2.71;84.44
16777;BME280;8505;49.456;8.164;2023-01-28T01:14:03;100570.13;;;2.85;84.58
16777;BME280;8505;49.456;8.164;2023-01-28T01:16:32;100571.84;;;2.47;85.90
16777;BME280;8505;49.456;8.164;2023-01-28T01:19:02;100576.69;;;2.38;86.38
16777;BME280;8505;49.456;8.164;2023-01-28T01:21:30;100573.69;;;2.84;84.88
16777;BME280;8505;49.456;8.164;2023-01-28T01:23:57;100575.41;;;2.58;86.16
16777;BME280;8505;49.456;8.164;2023-01-28T01:26:25;100571.34;;;2.67;84.91
16777;BME280;8505;49.456;8.164;2023-01-28T01:28:53;100574.97;;;2.52;85.45
16777;BME280;8505;49.456;8.164;2023-01-28T01:31:22;100571.56;;;2.64;85.19
16777;BME280;8505;49.456;8.164;2023-01-28T01:33:51;100575.56;;;2.69;84.66
16777;BME280;8505;49.456;8.164;2023-01-28T01:36:19;100575.38;;;2.46;86.51
16777;BME280;8505;49.456;8.164;2023-01-28T01:38:51;100577.63;;;2.37;86.61
16777;BME280;8505;49.456;8.164;2023-01-28T01:41:24;100572.25;;;2.53;85.63
16777;BME280;8505;49.456;8.164;2023-01-28T01:43:53;100579.06;;;2.56;85.99
16777;BME280;8505;49.456;8.164;2023-01-28T01:46:26;100575.50;;;2.30;86.63
16777;BME280;8505;49.456;8.164;2023-01-28T01:49:01;100580.25;;;2.37;86.79
16777;BME280;8505;49.456;8.164;2023-01-28T01:51:31;100580.88;;;2.41;86.58
16777;BME280;8505;49.456;8.164;2023-01-28T01:54:01;100582.16;;;2.48;86.06
16777;BME280;8505;49.456;8.164;2023-01-28T01:56:33;100581.97;;;2.24;86.67
16777;BME280;8505;49.456;8.164;2023-01-28T01:59:02;100586.16;;;2.54;86.49
16777;BME280;8505;49.456;8.164;2023-01-28T02:01:32;100581.09;;;2.65;85.84
16777;BME280;8505;49.456;8.164;2023-01-28T02:04:03;100584.94;;;2.59;85.70
16777;BME280;8505;49.456;8.164;2023-01-28T02:06:34;100588.03;;;2.52;85.51
16777;BME280;8505;49.456;8.164;2023-01-28T02:09:06;100584.84;;;2.34;86.26
16777;BME280;8505;49.456;8.164;2023-01-28T02:11:35;100581.94;;;2.38;86.34
16777;BME280;8505;49.456;8.164;2023-01-28T02:14:04;100582.91;;;2.50;85.63
16777;BME280;8505;49.456;8.164;2023-01-28T02:16:34;100577.25;;;2.43;86.37
16777;BME280;8505;49.456;8.164;2023-01-28T02:19:02;100590.16;;;2.32;86.46
16777;BME280;8505;49.456;8.164;2023-01-28T02:21:49;100589.81;;;2.24;86.72
16777;BME280;8505;49.456;8.164;2023-01-28T02:24:49;100582.91;;;2.23;86.45
16777;BME280;8505;49.456;8.164;2023-01-28T02:27:26;100586.56;;;2.21;86.50
16777;BME280;8505;49.456;8.164;2023-01-28T02:30:02;100586.94;;;2.15;86.59
16777;BME280;8505;49.456;8.164;2023-01-28T02:32:38;100598.25;;;2.01;86.81
16777;BME280;8505;49.456;8.164;2023-01-28T02:35:11;100585.34;;;2.12;86.65
16777;BME280;8505;49.456;8.164;2023-01-28T02:37:45;100586.13;;;2.00;86.63
16777;BME280;8505;49.456;8.164;2023-01-28T02:40:19;100594.88;;;2.13;86.52
16777;BME280;8505;49.456;8.164;2023-01-28T02:42:48;100597.31;;;2.02;86.98
16777;BME280;8505;49.456;8.164;2023-01-28T02:45:22;100586.13;;;2.00;87.20
16777;BME280;8505;49.456;8.164;2023-01-28T02:48:11;100590.13;;;1.91;87.53
16777;BME280;8505;49.456;8.164;2023-01-28T02:50:46;100585.75;;;2.06;87.09
16777;BME280;8505;49.456;8.164;2023-01-28T02:53:20;100584.81;;;2.07;86.46
16777;BME280;8505;49.456;8.164;2023-01-28T02:56:17;100587.50;;;2.06;86.47
16777;BME280;8505;49.456;8.164;2023-01-28T02:58:51;100589.59;;;2.00;86.48
16777;BME280;8505;49.456;8.164;2023-01-28T03:01:27;100588.34;;;2.06;86.02
16777;BME280;8505;49.456;8.164;2023-01-28T03:04:03;100594.56;;;2.18;85.39
16777;BME280;8505;49.456;8.164;2023-01-28T03:06:36;100591.19;;;1.89;86.33
16777;BME280;8505;49.456;8.164;2023-01-28T03:09:05;100589.59;;;1.86;86.60
16777;BME280;8505;49.456;8.164;2023-01-28T03:11:52;100590.09;;;2.20;85.93
16777;BME280;8505;49.456;8.164;2023-01-28T03:14:39;100599.16;;;2.14;85.38
16777;BME280;8505;49.456;8.164;2023-01-28T03:17:31;100596.81;;;2.24;85.19
16777;BME280;8505;49.456;8.164;2023-01-28T03:20:19;100595.63;;;2.15;85.42
16777;BME280;8505;49.456;8.164;2023-01-28T03:23:08;100585.28;;;1.99;86.04
16777;BME280;8505;49.456;8.164;2023-01-28T03:25:58;100593.75;;;2.17;85.65
16777;BME280;8505;49.456;8.164;2023-01-28T03:28:45;100594.50;;;2.05;85.45
16777;BME280;8505;49.456;8.164;2023-01-28T03:31:33;100605.47;;;2.24;85.72
16777;BME280;8505;49.456;8.164;2023-01-28T03:34:22;100600.78;;;2.02;85.56
16777;BME280;8505;49.456;8.164;2023-01-28T03:37:07;100597.88;;;2.07;85.21
16777;BME280;8505;49.456;8.164;2023-01-28T03:39:36;100607.09;;;1.98;85.73
16777;BME280;8505;49.456;8.164;2023-01-28T03:42:07;100600.03;;;2.00;85.99
16777;BME280;8505;49.456;8.164;2023-01-28T03:44:34;100607.03;;;2.00;85.72
16777;BME280;8505;49.456;8.164;2023-01-28T03:47:19;100607.31;;;1.95;86.23
16777;BME280;8505;49.456;8.164;2023-01-28T03:49:50;100615.63;;;2.02;85.27
16777;BME280;8505;49.456;8.164;2023-01-28T03:52:19;100619.44;;;1.96;85.89
16777;BME280;8505;49.456;8.164;2023-01-28T03:54:48;100618.53;;;1.97;85.76
16777;BME280;8505;49.456;8.164;2023-01-28T03:57:19;100625.69;;;2.08;85.68
16777;BME280;8505;49.456;8.164;2023-01-28T03:59:46;100621.59;;;1.90;85.97
16777;BME280;8505;49.456;8.164;2023-01-28T04:02:15;100625.50;;;1.83;85.69
16777;BME280;8505;49.456;8.164;2023-01-28T04:04:43;100626.25;;;1.85;85.74
16777;BME280;8505;49.456;8.164;2023-01-28T04:07:12;100628.69;;;1.88;85.90
16777;BME280;8505;49.456;8.164;2023-01-28T04:09:41;100624.78;;;1.67;86.53
16777;BME280;8505;49.456;8.164;2023-01-28T04:12:09;100623.75;;;1.97;84.82
16777;BME280;8505;49.456;8.164;2023-01-28T04:14:37;100631.75;;;1.80;85.83
16777;BME280;8505;49.456;8.164;2023-01-28T04:17:05;100624.56;;;1.98;85.67
16777;BME280;8505;49.456;8.164;2023-01-28T04:19:36;100633.44;;;1.81;85.81
16777;BME280;8505;49.456;8.164;2023-01-28T04:22:05;100637.06;;;1.93;86.01
16777;BME280;8505;49.456;8.164;2023-01-28T04:24:35;100637.06;;;1.65;86.68
16777;BME280;8505;49.456;8.164;2023-01-28T04:27:03;100641.34;;;1.94;85.99
16777;BME280;8505;49.456;8.164;2023-01-28T04:29:30;100637.06;;;1.93;85.69
16777;BME280;8505;49.456;8.164;2023-01-28T04:31:58;100632.50;;;1.96;85.38
16777;BME280;8505;49.456;8.164;2023-01-28T04:34:26;100632.88;;;1.90;85.73
16777;BME280;8505;49.456;8.164;2023-01-28T04:36:53;100637.13;;;2.06;85.14
16777;BME280;8505;49.456;8.164;2023-01-28T04:39:21;100639.13;;;1.88;85.95
16777;BME280;8505;49.456;8.164;2023-01-28T04:41:50;100648.34;;;1.93;86.09
16777;BME280;8505;49.456;8.164;2023-01-28T04:44:17;100646.94;;;1.88;85.67
16777;BME280;8505;49.456;8.164;2023-01-28T04:46:45;100646.03;;;1.89;85.53
16777;BME280;8505;49.456;8.164;2023-01-28T04:49:13;100658.25;;;1.88;85.96
16777;BME280;8505;49.456;8.164;2023-01-28T04:51:40;100654.97;;;1.99;85.21
16777;BME280;8505;49.456;8.164;2023-01-28T04:54:08;100645.28;;;1.87;85.99
16777;BME280;8505;49.456;8.164;2023-01-28T04:56:36;100658.78;;;1.93;85.76
16777;BME280;8505;49.456;8.164;2023-01-28T04:59:05;100652.38;;;1.71;86.37
16777;BME280;8505;49.456;8.164;2023-01-28T05:01:33;100650.59;;;1.99;85.76
16777;BME280;8505;49.456;8.164;2023-01-28T05:04:01;100652.00;;;1.91;85.83
16777;BME280;8505;49.456;8.164;2023-01-28T05:06:31;100655.72;;;2.01;85.32
16777;BME280;8505;49.456;8.164;2023-01-28T05:08:59;100642.81;;;2.12;84.33
16777;BME280;8505;49.456;8.164;2023-01-28T05:11:26;100643.03;;;1.81;86.14
16777;BME280;8505;49.456;8.164;2023-01-28T05:13:54;100648.81;;;1.86;85.49
16777;BME280;8505;49.456;8.164;2023-01-28T05:16:23;100638.75;;;1.80;85.61
16777;BME280;8505;49.456;8.164;2023-01-28T05:18:51;100648.25;;;1.81;85.66
16777;BME280;8505;49.456;8.164;2023-01-28T05:21:18;100651.31;;;1.73;86.29
16777;BME280;8505;49.456;8.164;2023-01-28T05:23:46;100652.56;;;1.82;85.92
16777;BME280;8505;49.456;8.164;2023-01-28T05:26:14;100662.25;;;2.08;85.01
16777;BME280;8505;49.456;8.164;2023-01-28T05:28:41;100665.53;;;1.97;84.42
16777;BME280;8505;49.456;8.164;2023-01-28T05:31:09;100664.47;;;1.86;85.15
16777;BME280;8505;49.456;8.164;2023-01-28T05:33:38;100662.78;;;1.99;85.70
16777;BME280;8505;49.456;8.164;2023-01-28T05:36:06;100670.44;;;1.88;85.56
16777;BME280;8505;49.456;8.164;2023-01-28T05:38:34;100674.75;;;1.89;85.40
16777;BME280;8505;49.456;8.164;2023-01-28T05:41:01;100672.41;;;1.98;84.91
16777;BME280;8505;49.456;8.164;2023-01-28T05:43:29;100672.69;;;2.08;84.94
16777;BME280;8505;49.456;8.164;2023-01-28T05:45:56;100673.63;;;1.79;86.14
16777;BME280;8505;49.456;8.164;2023-01-28T05:48:24;100674.47;;;1.93;85.29
16777;BME280;8505;49.456;8.164;2023-01-28T05:50:53;100680.72;;;1.91;85.24
16777;BME280;8505;49.456;8.164;2023-01-28T05:53:21;100676.88;;;2.11;85.17
16777;BME280;8505;49.456;8.164;2023-01-28T05:55:49;100692.28;;;2.01;85.57
16777;BME280;8505;49.456;8.164;2023-01-28T05:58:17;100684.06;;;2.21;84.94
16777;BME280;8505;49.456;8.164;2023-01-28T06:00:45;100694.13;;;1.99;85.25
16777;BME280;8505;49.456;8.164;2023-01-28T06:03:13;100699.53;;;1.68;86.75
16777;BME280;8505;49.456;8.164;2023-01-28T06:05:40;100699.75;;;2.07;85.94
16777;BME280;8505;49.456;8.164;2023-01-28T06:08:09;100703.00;;;2.11;85.53
16777;BME280;8505;49.456;8.164;2023-01-28T06:10:37;100704.41;;;1.88;86.02
16777;BME280;8505;49.456;8.164;2023-01-28T06:13:05;100704.00;;;1.80;86.70
16777;BME280;8505;49.456;8.164;2023-01-28T06:15:32;100711.84;;;1.66;87.07
16777;BME280;8505;49.456;8.164;2023-01-28T06:18:00;100708.41;;;1.65;87.46
16777;BME280;8505;49.456;8.164;2023-01-28T06:20:28;100715.78;;;2.01;86.03
16777;BME280;8505;49.456;8.164;2023-01-28T06:22:55;100716.06;;;1.96;86.17
16777;BME280;8505;49.456;8.164;2023-01-28T06:25:24;100719.97;;;1.75;87.03
16777;BME280;8505;49.456;8.164;2023-01-28T06:27:52;100725.22;;;1.89;86.74
16777;BME280;8505;49.456;8.164;2023-01-28T06:30:20;100726.94;;;1.75;87.18
16777;BME280;8505;49.456;8.164;2023-01-28T06:32:53;100734.06;;;1.73;86.40
16777;BME280;8505;49.456;8.164;2023-01-28T06:35:21;100734.34;;;1.82;86.36
16777;BME280;8505;49.456;8.164;2023-01-28T06:37:48;100732.81;;;1.64;87.02
16777;BME280;8505;49.456;8.164;2023-01-28T06:40:17;100739.19;;;1.44;87.96
16777;BME280;8505;49.456;8.164;2023-01-28T06:42:46;100736.66;;;1.73;87.25
16777;BME280;8505;49.456;8.164;2023-01-28T06:45:14;100752.53;;;1.98;86.82
16777;BME280;8505;49.456;8.164;2023-01-28T06:47:41;100759.59;;;1.82;86.30
16777;BME280;8505;49.456;8.164;2023-01-28T06:50:10;100756.06;;;1.83;86.56
16777;BME280;8505;49.456;8.164;2023-01-28T06:52:38;100756.06;;;1.83;86.41
16777;BME280;8505;49.456;8.164;2023-01-28T06:55:07;100759.19;;;1.74;86.46
16777;BME280;8505;49.456;8.164;2023-01-28T06:57:36;100765.25;;;1.74;86.52
16777;BME280;8505;49.456;8.164;2023-01-28T07:00:07;100759.91;;;2.06;86.07
16777;BME280;8505;49.456;8.164;2023-01-28T07:02:36;100757.84;;;2.11;84.97
16777;BME280;8505;49.456;8.164;2023-01-28T07:05:05;100758.69;;;1.83;86.11
16777;BME280;8505;49.456;8.164;2023-01-28T07:07:33;100767.19;;;1.56;86.71
16777;BME280;8505;49.456;8.164;2023-01-28T07:10:00;100764.28;;;1.91;85.29
16777;BME280;8505;49.456;8.164;2023-01-28T07:12:28;100763.34;;;1.78;85.96
16777;BME280;8505;49.456;8.164;2023-01-28T07:14:55;100765.09;;;1.91;85.65
16777;BME280;8505;49.456;8.164;2023-01-28T07:17:24;100771.16;;;1.92;85.16
16777;BME280;8505;49.456;8.164;2023-01-28T07:19:52;100764.91;;;1.80;85.42
16777;BME280;8505;49.456;8.164;2023-01-28T07:22:19;100773.94;;;1.75;86.19
16777;BME280;8505;49.456;8.164;2023-01-28T07:24:47;100770.44;;;1.90;85.14
16777;BME280;8505;49.456;8.164;2023-01-28T07:27:15;100769.28;;;1.66;86.01
16777;BME280;8505;49.456;8.164;2023-01-28T07:29:42;100771.38;;;1.89;85.67
16777;BME280;8505;49.456;8.164;2023-01-28T07:32:10;100770.25;;;1.93;85.09
16777;BME280;8505;49.456;8.164;2023-01-28T07:34:39;100771.00;;;1.95;84.90
16777;BME280;8505;49.456;8.164;2023-01-28T07:37:08;100769.88;;;1.85;84.47
16777;BME280;8505;49.456;8.164;2023-01-28T07:39:36;100771.38;;;1.89;84.98
16777;BME280;8505;49.456;8.164;2023-01-28T07:42:04;100766.31;;;1.86;84.71
16777;BME280;8505;49.456;8.164;2023-01-28T07:44:31;100769.59;;;1.89;84.15
16777;BME280;8505;49.456;8.164;2023-01-28T07:47:01;100771.59;;;1.70;84.66
16777;BME280;8505;49.456;8.164;2023-01-28T07:49:28;100772.44;;;1.71;84.70
16777;BME280;8505;49.456;8.164;2023-01-28T07:51:57;100780.09;;;1.74;85.01
16777;BME280;8505;49.456;8.164;2023-01-28T07:54:26;100782.69;;;2.18;82.94
16777;BME280;8505;49.456;8.164;2023-01-28T07:56:53;100788.72;;;1.90;84.13
16777;BME280;8505;49.456;8.164;2023-01-28T07:59:21;100790.69;;;2.00;84.25
16777;BME280;8505;49.456;8.164;2023-01-28T08:01:49;100784.47;;;2.03;84.16
16777;BME280;8505;49.456;8.164;2023-01-28T08:04:19;100791.66;;;1.70;84.41
16777;BME280;8505;49.456;8.164;2023-01-28T08:06:47;100790.69;;;2.00;83.78
16777;BME280;8505;49.456;8.164;2023-01-28T08:09:16;100789.19;;;1.96;83.94
16777;BME280;8505;49.456;8.164;2023-01-28T08:11:43;100793.59;;;2.10;82.92
16777;BME280;8505;49.456;8.164;2023-01-28T08:14:11;100789.69;;;2.31;82.72
16777;BME280;8505;49.456;8.164;2023-01-28T08:16:39;100798.06;;;2.08;82.36
16777;BME280;8505;49.456;8.164;2023-01-28T08:19:06;100798.88;;;1.94;83.63
16777;BME280;8505;49.456;8.164;2023-01-28T08:21:34;100803.03;;;2.27;82.59
16777;BME280;8505;49.456;8.164;2023-01-28T08:24:02;100798.50;;;1.86;83.37
16777;BME280;8505;49.456;8.164;2023-01-28T08:26:31;100808.94;;;1.86;83.59
16777;BME280;8505;49.456;8.164;2023-01-28T08:28:58;100803.00;;;1.98;83.29
16777;BME280;8505;49.456;8.164;2023-01-28T08:31:26;100804.41;;;2.04;83.11
16777;BME280;8505;49.456;8.164;2023-01-28T08:33:54;100816.63;;;1.74;84.39
16777;BME280;8505;49.456;8.164;2023-01-28T08:36:22;100804.69;;;1.99;83.94
16777;BME280;8505;49.456;8.164;2023-01-28T08:38:51;100812.44;;;2.01;83.51
16777;BME280;8505;49.456;8.164;2023-01-28T08:41:19;100811.13;;;2.22;82.50
16777;BME280;8505;49.456;8.164;2023-01-28T08:43:48;100801.59;;;1.93;83.50
16777;BME280;8505;49.456;8.164;2023-01-28T08:46:16;100804.25;;;2.35;82.30
16777;BME280;8505;49.456;8.164;2023-01-28T08:48:44;100814.13;;;2.02;82.68
16777;BME280;8505;49.456;8.164;2023-01-28T08:51:11;100809.72;;;2.17;82.71
16777;BME280;8505;49.456;8.164;2023-01-28T08:53:39;100808.88;;;2.02;82.94
16777;BME280;8505;49.456;8.164;2023-01-28T08:56:07;100811.91;;;2.24;82.67
16777;BME280;8505;49.456;8.164;2023-01-28T08:58:34;100808.06;;;2.30;81.70
16777;BME280;8505;49.456;8.164;2023-01-28T09:01:05;100809.97;;;2.28;81.98
16777;BME280;8505;49.456;8.164;2023-01-28T09:03:32;100809.41;;;2.51;81.24
16777;BME280;8505;49.456;8.164;2023-01-28T09:06:02;100814.03;;;2.18;81.55
16777;BME280;8505;49.456;8.164;2023-01-28T09:08:30;100810.06;;;2.40;81.21
16777;BME280;8505;49.456;8.164;2023-01-28T09:10:59;100813.59;;;2.39;81.60
16777;BME280;8505;49.456;8.164;2023-01-28T09:13:27;100819.00;;;2.36;81.55
16777;BME280;8505;49.456;8.164;2023-01-28T09:15:55;100819.56;;;2.27;80.94
16777;BME280;8505;49.456;8.164;2023-01-28T09:18:24;100818.41;;;2.17;81.36
16777;BME280;8505;49.456;8.164;2023-01-28T09:20:52;100817.31;;;2.35;80.25
16777;BME280;8505;49.456;8.164;2023-01-28T09:23:19;100821.91;;;2.32;81.70
16777;BME280;8505;49.456;8.164;2023-01-28T09:25:47;100828.59;;;2.36;80.89
16777;BME280;8505;49.456;8.164;2023-01-28T09:28:15;100830.75;;;2.29;81.11
16777;BME280;8505;49.456;8.164;2023-01-28T09:30:42;100825.56;;;2.58;79.72
16777;BME280;8505;49.456;8.164;2023-01-28T09:33:10;100828.88;;;2.31;81.00
16777;BME280;8505;49.456;8.164;2023-01-28T09:35:39;100831.72;;;2.28;81.12
16777;BME280;8505;49.456;8.164;2023-01-28T09:38:06;100831.84;;;2.11;80.83
16777;BME280;8505;49.456;8.164;2023-01-28T09:40:36;100837.09;;;2.25;80.96
16777;BME280;8505;49.456;8.164;2023-01-28T09:43:18;100835.97;;;2.29;80.47
16777;BME280;8505;49.456;8.164;2023-01-28T09:45:52;100841.19;;;2.15;80.95
16777;BME280;8505;49.456;8.164;2023-01-28T09:48:27;100845.94;;;2.23;80.26
16777;BME280;8505;49.456;8.164;2023-01-28T09:50:59;100851.19;;;2.37;80.40
16777;BME280;8505;49.456;8.164;2023-01-28T09:53:30;100839.84;;;2.52;79.43
16777;BME280;8505;49.456;8.164;2023-01-28T09:56:00;100846.47;;;2.58;79.29
16777;BME280;8505;49.456;8.164;2023-01-28T09:58:29;100843.28;;;2.81;78.54
16777;BME280;8505;49.456;8.164;2023-01-28T10:01:00;100848.78;;;2.62;78.87
16777;BME280;8505;49.456;8.164;2023-01-28T10:03:41;100844.97;;;2.82;78.56
16777;BME280;8505;49.456;8.164;2023-01-28T10:06:24;100848.88;;;2.61;78.34
16777;BME280;8505;49.456;8.164;2023-01-28T10:09:06;100851.88;;;2.55;78.94
16777;BME280;8505;49.456;8.164;2023-01-28T10:11:49;100851.50;;;2.61;78.94
16777;BME280;8505;49.456;8.164;2023-01-28T10:14:27;100843.19;;;2.82;78.21
16777;BME280;8505;49.456;8.164;2023-01-28T10:17:04;100843.34;;;2.94;77.44
16777;BME280;8505;49.456;8.164;2023-01-28T10:19:39;100842.06;;;2.72;78.24
16777;BME280;8505;49.456;8.164;2023-01-28T10:22:14;100846.44;;;2.86;77.76
16777;BME280;8505;49.456;8.164;2023-01-28T10:24:46;100848.13;;;2.73;77.89
16777;BME280;8505;49.456;8.164;2023-01-28T10:27:18;100837.03;;;2.69;77.74
16777;BME280;8505;49.456;8.164;2023-01-28T10:29:46;100843.06;;;2.84;77.98
16777;BME280;8505;49.456;8.164;2023-01-28T10:32:21;100842.69;;;3.04;77.15
16777;BME280;8505;49.456;8.164;2023-01-28T10:34:52;100854.66;;;2.94;77.14
16777;BME280;8505;49.456;8.164;2023-01-28T10:37:21;100846.44;;;2.86;77.45
16777;BME280;8505;49.456;8.164;2023-01-28T10:39:58;100854.13;;;2.47;77.74
16777;BME280;8505;49.456;8.164;2023-01-28T10:42:29;100854.88;;;2.63;77.83
16777;BME280;8505;49.456;8.164;2023-01-28T10:45:00;100859.16;;;2.64;77.91
16777;BME280;8505;49.456;8.164;2023-01-28T10:47:32;100848.63;;;2.65;77.51
16777;BME280;8505;49.456;8.164;2023-01-28T10:50:05;100849.81;;;2.74;76.38
16777;BME280;8505;49.456;8.164;2023-01-28T10:52:53;100855.41;;;2.82;76.79
16777;BME280;8505;49.456;8.164;2023-01-28T10:55:22;100857.84;;;2.57;77.54
16777;BME280;8505;49.456;8.164;2023-01-28T10:57:51;100859.44;;;2.73;77.60
16777;BME280;8505;49.456;8.164;2023-01-28T11:00:23;100854.28;;;2.86;76.12
16777;BME280;8505;49.456;8.164;2023-01-28T11:02:52;100845.97;;;2.79;76.20
16777;BME280;8505;49.456;8.164;2023-01-28T11:05:23;100861.88;;;2.76;76.57
16777;BME280;8505;49.456;8.164;2023-01-28T11:08:03;100866.91;;;2.65;76.00
16777;BME280;8505;49.456;8.164;2023-01-28T11:10:33;100853.56;;;2.70;76.79
16777;BME280;8505;49.456;8.164;2023-01-28T11:13:03;100855.75;;;2.90;75.90
16777;BME280;8505;49.456;8.164;2023-01-28T11:15:31;100867.94;;;2.63;77.28
16777;BME280;8505;49.456;8.164;2023-01-28T11:18:01;100864.75;;;2.72;76.61
16777;BME280;8505;49.456;8.164;2023-01-28T11:20:34;100872.59;;;2.43;76.99
16777;BME280;8505;49.456;8.164;2023-01-28T11:23:05;100877.16;;;2.54;76.26
16777;BME280;8505;49.456;8.164;2023-01-28T11:25:34;100876.88;;;2.73;75.97
16777;BME280;8505;49.456;8.164;2023-01-28T11:28:05;100873.06;;;2.64;76.44
16777;BME280;8505;49.456;8.164;2023-01-28T11:30:37;100869.16;;;2.57;76.29
16777;BME280;8505;49.456;8.164;2023-01-28T11:33:13;100869.13;;;2.85;75.33
16777;BME280;8505;49.456;8.164;2023-01-28T11:35:51;100871.97;;;2.82;76.25
16777;BME280;8505;49.456;8.164;2023-01-28T11:38:22;100865.88;;;2.96;75.28
16777;BME280;8505;49.456;8.164;2023-01-28T11:40:51;100865.31;;;2.49;76.39
16777;BME280;8505;49.456;8.164;2023-01-28T11:43:21;100870.13;;;3.11;75.23
16777;BME280;8505;49.456;8.164;2023-01-28T11:45:56;100859.41;;;3.02;75.17
16777;BME280;8505;49.456;8.164;2023-01-28T11:48:38;100862.22;;;2.84;74.91
16777;BME280;8505;49.456;8.164;2023-01-28T11:51:22;100867.16;;;3.03;74.48
16777;BME280;8505;49.456;8.164;2023-01-28T11:53:59;100861.00;;;3.04;74.50
16777;BME280;8505;49.456;8.164;2023-01-28T11:56:39;100855.88;;;2.60;75.62
16777;BME280;8505;49.456;8.164;2023-01-28T11:59:35;100850.66;;;2.89;74.58
16777;BME280;8505;49.456;8.164;2023-01-28T12:02:18;100858.50;;;2.60;75.25
16777;BME280;8505;49.456;8.164;2023-01-28T12:05:11;100855.03;;;2.60;75.88
16777;BME280;8505;49.456;8.164;2023-01-28T12:07:47;100848.28;;;2.98;74.18
16777;BME280;8505;49.456;8.164;2023-01-28T12:10:24;100839.97;;;2.92;73.67
16777;BME280;8505;49.456;8.164;2023-01-28T12:13:12;100846.16;;;2.91;74.92
16777;BME280;8505;49.456;8.164;2023-01-28T12:15:53;100831.72;;;2.71;74.71
16777;BME280;8505;49.456;8.164;2023-01-28T12:21:24;100840.28;;;3.01;74.05
16777;BME280;8505;49.456;8.164;2023-01-28T12:24:06;100841.22;;;2.72;74.11
16777;BME280;8505;49.456;8.164;2023-01-28T12:26:44;100833.75;;;2.66;74.93
16777;BME280;8505;49.456;8.164;2023-01-28T12:29:21;100827.31;;;3.27;73.68
16777;BME280;8505;49.456;8.164;2023-01-28T12:32:00;100828.34;;;3.24;73.54
16777;BME280;8505;49.456;8.164;2023-01-28T12:34:56;100826.97;;;3.04;73.46
16777;BME280;8505;49.456;8.164;2023-01-28T12:37:36;100836.53;;;2.91;73.93
16777;BME280;8505;49.456;8.164;2023-01-28T12:40:35;100830.28;;;2.79;73.63
16777;BME280;8505;49.456;8.164;2023-01-28T12:43:10;100829.22;;;3.10;73.39
16777;BME280;8505;49.456;8.164;2023-01-28T12:45:44;100829.97;;;2.98;73.73
16777;BME280;8505;49.456;8.164;2023-01-28T12:48:16;100834.66;;;2.93;73.90
16777;BME280;8505;49.456;8.164;2023-01-28T12:50:48;100824.59;;;2.87;73.81
16777;BME280;8505;49.456;8.164;2023-01-28T12:53:22;100825.72;;;2.69;74.14
16777;BME280;8505;49.456;8.164;2023-01-28T12:55:57;100824.84;;;2.97;73.94
16777;BME280;8505;49.456;8.164;2023-01-28T12:58:35;100820.03;;;2.62;74.61
16777;BME280;8505;49.456;8.164;2023-01-28T13:01:07;100819.19;;;2.76;74.49
16777;BME280;8505;49.456;8.164;2023-01-28T13:03:39;100816.66;;;2.60;75.07
16777;BME280;8505;49.456;8.164;2023-01-28T13:06:12;100824.84;;;2.97;74.43
16777;BME280;8505;49.456;8.164;2023-01-28T13:08:41;100815.19;;;3.11;73.96
16777;BME280;8505;49.456;8.164;2023-01-28T13:11:13;100820.94;;;2.90;75.07
16777;BME280;8505;49.456;8.164;2023-01-28T13:13:44;100820.66;;;3.21;74.16
16777;BME280;8505;49.456;8.164;2023-01-28T13:16:12;100821.78;;;3.31;73.45
16777;BME280;8505;49.456;8.164;2023-01-28T13:18:44;100816.66;;;2.89;74.03
16777;BME280;8505;49.456;8.164;2023-01-28T13:21:15;100829.44;;;2.79;75.45
16777;BME280;8505;49.456;8.164;2023-01-28T13:23:45;100826.56;;;2.83;75.46
16777;BME280;8505;49.456;8.164;2023-01-28T13:26:36;100835.91;;;2.45;75.86
16777;BME280;8505;49.456;8.164;2023-01-28T13:29:21;100831.97;;;2.66;75.63
16777;BME280;8505;49.456;8.164;2023-01-28T13:31:55;100837.03;;;2.55;75.72
16777;BME280;8505;49.456;8.164;2023-01-28T13:34:29;100842.28;;;3.10;75.02
16777;BME280;8505;49.456;8.164;2023-01-28T13:37:02;100839.28;;;3.16;74.51